Montego — 9HLX8 — position and weather

sailwx.info

Track history (hours):
 
Tides and Currents Weather Stations Pressure Air Temp Water Temp Dewpoint Dewpoint Depression Visibility Wind Speed Wind Dir Waves Ship Positions

Montego

Last reported at 2018-Jul-16 05:56 UTC. Time now 2018-Jul-17 05:38 UTC.
Position N 53°54' E 004°34'.

Length 246 m; draft 8.6 m.

Type: Ship (hazmat cat A). MMSI: 249549000.

Date/timePositionNaut miles runAvg speedWind from/ knotsBaromVisibWave heightAir tempDewpointWater temp
2018-Jul-16 05:56N 53°54' E 004°34'6 8.7
2018-Jul-16 05:15N 53°50' E 004°27'3 8.5
2018-Jul-16 04:53N 53°48' E 004°23'5 8.0
2018-Jul-16 04:17N 53°45' E 004°17'3 8.2
2018-Jul-16 03:55N 53°43' E 004°13'6 8.2
2018-Jul-16 03:12N 53°39' E 004°05'2 8.2
2018-Jul-16 02:56N 53°38' E 004°02'5 8.1
2018-Jul-16 02:23N 53°35' E 003°56'3 8.2
2018-Jul-16 02:00N 53°33' E 003°52'4 8.2
2018-Jul-16 01:30N 53°31' E 003°47'4 8.4
2018-Jul-16 01:00N 53°27' E 003°44'4 8.2
2018-Jul-16 00:29N 53°23' E 003°41'12 7.9
2018-Jul-15 22:59N 53°12' E 003°33'4 7.7
2018-Jul-15 22:30N 53°09' E 003°30'4 7.6
2018-Jul-15 21:59N 53°05' E 003°27'11 8.0
2018-Jul-15 20:35N 52°55' E 003°21'2 8.6
2018-Jul-15 20:22N 52°53' E 003°20'3 8.9
2018-Jul-15 19:58N 52°50' E 003°17'4 9.1
2018-Jul-15 19:30N 52°46' E 003°14'5 9.5
2018-Jul-15 18:59N 52°42' E 003°10'5 9.8
2018-Jul-15 18:26N 52°37' E 003°05'510.2
2018-Jul-15 17:56N 52°33' E 003°01'510.4
2018-Jul-15 17:27N 52°28' E 002°57'510.7
2018-Jul-15 16:58N 52°24' E 002°54'510.9
2018-Jul-15 16:30N 52°19' E 002°50'611.1
2018-Jul-15 16:00N 52°14' E 002°45'510.9
2018-Jul-15 15:30N 52°09' E 002°42'610.9
2018-Jul-15 14:58N 52°03' E 002°41'510.5
2018-Jul-15 14:30N 51°59' E 002°40'510.2
2018-Jul-15 14:00N 51°54' E 002°38'5 9.7
2018-Jul-15 13:30N 51°49' E 002°37'5 9.1
2018-Jul-15 13:00N 51°44' E 002°35'4 8.8
2018-Jul-15 12:30N 51°41' E 002°31'4 8.2
2018-Jul-15 12:00N 51°38' E 002°27'4 7.7
2018-Jul-15 11:30N 51°35' E 002°23'4 7.2
2018-Jul-15 11:00N 51°32' E 002°19'3 6.8
2018-Jul-15 10:30N 51°30' E 002°15'3 6.3
2018-Jul-15 10:00N 51°27' E 002°12'3 6.0
2018-Jul-15 09:30N 51°25' E 002°09'3 6.3
2018-Jul-15 09:00N 51°22' E 002°08'3 6.8
2018-Jul-15 08:30N 51°18' E 002°07'3 6.6
2018-Jul-15 08:00N 51°15' E 002°05'3 6.4
2018-Jul-15 07:30N 51°13' E 002°01'4 7.1
2018-Jul-15 07:00N 51°12' E 001°56'4 7.3
2018-Jul-15 06:30N 51°10' E 001°51'4 7.6
2018-Jul-15 06:00N 51°08' E 001°46'4 8.2
2018-Jul-15 05:30N 51°05' E 001°42'4 8.5
2018-Jul-15 05:00N 51°01' E 001°38'5 9.0
2018-Jul-15 04:30N 50°58' E 001°33'5 9.6
2018-Jul-15 04:01N 50°54' E 001°29'5 9.9
2018-Jul-15 03:30N 50°50' E 001°26'510.0
2018-Jul-15 03:00N 50°45' E 001°23'5 9.6
2018-Jul-15 02:30N 50°40' E 001°20'5 9.8
2018-Jul-15 02:00N 50°37' E 001°14'510.1
2018-Jul-15 01:30N 50°34' E 001°08'510.0
2018-Jul-15 01:00N 50°31' E 001°02'5 9.7
2018-Jul-15 00:30N 50°29' E 000°55'5 9.9
2018-Jul-15 00:00N 50°28' E 000°47'510.2
2018-Jul-14 23:30N 50°27' E 000°39'510.6
2018-Jul-14 23:00N 50°25' E 000°31'611.1
2018-Jul-14 22:30N 50°24' E 000°23'611.5
2018-Jul-14 22:00N 50°22' E 000°14'611.8
2018-Jul-14 21:30N 50°21' E 000°05'611.5
2018-Jul-14 21:00N 50°19' W 000°03'611.2
2018-Jul-14 20:30N 50°17' W 000°12'611.1
2018-Jul-14 20:00N 50°16' W 000°20'510.8
2018-Jul-14 19:30N 50°14' W 000°28'510.2
2018-Jul-14 19:00N 50°13' W 000°36'5 9.5
2018-Jul-14 18:30N 50°12' W 000°43'4 8.7
2018-Jul-14 18:00N 50°11' W 000°50'4 8.0
2018-Jul-14 17:30N 50°10' W 000°56'4 7.1
2018-Jul-14 17:00N 50°09' W 001°01'3 6.4
2018-Jul-14 16:30N 50°08' W 001°06'3 5.7
2018-Jul-14 16:00N 50°07' W 001°10'3 5.5
2018-Jul-14 15:30N 50°07' W 001°14'3 5.0
2018-Jul-14 15:00N 50°06' W 001°18'2 4.6
2018-Jul-14 14:31N 50°05' W 001°22'5 5.2
2018-Jul-14 13:31N 50°04' W 001°29'3 6.2
2018-Jul-14 13:00N 50°03' W 001°34'3 7.0
2018-Jul-14 12:30N 50°02' W 001°39'5 8.0
2018-Jul-14 11:56N 50°01' W 001°46'4 9.0
2018-Jul-14 11:30N 49°60' W 001°52'510.0
2018-Jul-14 11:00N 49°58' W 001°59'510.7
2018-Jul-14 10:30N 49°57' W 002°07'611.3
2018-Jul-14 10:00N 49°56' W 002°16'611.5
2018-Jul-14 09:30N 49°54' W 002°25'611.5
2018-Jul-14 09:00N 49°53' W 002°33'611.3
2018-Jul-14 08:30N 49°52' W 002°42'611.2
2018-Jul-14 08:00N 49°50' W 002°50'510.8
2018-Jul-14 07:30N 49°48' W 002°58'510.4
2018-Jul-14 07:00N 49°45' W 003°05'510.6
2018-Jul-14 06:30N 49°42' W 003°12'510.0
2018-Jul-14 06:00N 49°40' W 003°18'910.1
2018-Jul-14 05:06N 49°35' W 003°30'110.0
2018-Jul-14 04:59N 49°35' W 003°32'7 9.7
2018-Jul-14 04:19N 49°31' W 003°41'3 9.6
2018-Jul-14 04:00N 49°30' W 003°45'5 9.1
2018-Jul-14 03:30N 49°28' W 003°51'38 7.3
2018-Jul-13 22:21N 49°09' W 004°41'2 6.7
2018-Jul-13 22:00N 49°08' W 004°44'4 6.7
2018-Jul-13 21:26N 49°06' W 004°49'3 6.9
2018-Jul-13 21:00N 49°05' W 004°53'4 7.7
2018-Jul-13 20:30N 49°03' W 004°58'4 7.9
2018-Jul-13 20:00N 49°01' W 005°03'5 8.4
2018-Jul-13 19:26N 48°59' W 005°10'4 8.7
2018-Jul-13 19:00N 48°57' W 005°15'4 8.8
2018-Jul-13 18:30N 48°54' W 005°20'4 8.8
2018-Jul-13 18:00N 48°52' W 005°26'5 9.2
2018-Jul-13 17:30N 48°50' W 005°32'5 9.7
2018-Jul-13 17:00N 48°47' W 005°38'510.6
2018-Jul-13 16:30N 48°43' W 005°42'913.6
2018-Jul-13 15:49N 48°34' W 005°49'714.4
2018-Jul-13 15:19N 48°28' W 005°54'3914.3
2018-Jul-13 12:33N 47°53' W 006°20'5112.9
2018-Jul-13 08:34N 47°07' W 006°54'212.5
2018-Jul-13 08:24N 47°05' W 006°55'47811.7
2018-Jul-11 15:40N 39°25' W 009°51'211.7
2018-Jul-11 15:30N 39°23' W 009°51'711.8
2018-Jul-11 14:54N 39°16' W 009°51'512.2
2018-Jul-11 14:30N 39°11' W 009°51'612.4
2018-Jul-11 14:01N 39°05' W 009°51'612.2
2018-Jul-11 13:31N 38°59' W 009°51'612.0
2018-Jul-11 13:00N 38°52' W 009°51'612.2
2018-Jul-11 12:31N 38°46' W 009°52'612.2
2018-Jul-11 12:00N 38°40' W 009°51'612.8
2018-Jul-11 11:31N 38°34' W 009°49'612.9
2018-Jul-11 11:00N 38°28' W 009°47'612.9
2018-Jul-11 10:30N 38°22' W 009°45'613.0
2018-Jul-11 10:01N 38°15' W 009°43'713.1
2018-Jul-11 09:30N 38°09' W 009°41'612.9
2018-Jul-11 09:00N 38°03' W 009°39'713.0
2018-Jul-11 08:30N 37°56' W 009°37'713.1
2018-Jul-11 08:00N 37°50' W 009°36'713.1
2018-Jul-11 07:30N 37°43' W 009°34'713.0
2018-Jul-11 06:59N 37°37' W 009°32'612.7
2018-Jul-11 06:29N 37°31' W 009°30'1612.8
2018-Jul-11 05:15N 37°15' W 009°26'512.8
2018-Jul-11 04:50N 37°10' W 009°24'412.7
2018-Jul-11 04:30N 37°06' W 009°23'612.3
2018-Jul-11 04:01N 37°00' W 009°21'1612.4
2018-Jul-11 02:42N 36°46' W 009°11'312.5
2018-Jul-11 02:29N 36°45' W 009°08'613.2
2018-Jul-11 02:00N 36°43' W 009°01'712.9
2018-Jul-11 01:29N 36°41' W 008°53'612.8
2018-Jul-11 01:00N 36°40' W 008°45'2012.5
2018-Jul-10 23:25N 36°34' W 008°21'612.2
2018-Jul-10 22:54N 36°32' W 008°14'511.9
2018-Jul-10 22:30N 36°31' W 008°08'611.7
2018-Jul-10 22:00N 36°29' W 008°01'711.6
2018-Jul-10 21:25N 36°27' W 007°53'611.8
2018-Jul-10 20:53N 36°25' W 007°46'511.7
2018-Jul-10 20:25N 36°24' W 007°39'511.9
2018-Jul-10 19:59N 36°22' W 007°33'1912.3
2018-Jul-10 18:27N 36°15' W 007°11'78 8.4
2018-Jul-10 09:12N 35°58' W 005°37'210.4
2018-Jul-10 09:00N 35°58' W 005°35'5 9.7
2018-Jul-10 08:30N 35°59' W 005°29'4 8.3
2018-Jul-10 08:00N 36°00' W 005°24'4 7.1
2018-Jul-10 07:30N 36°01' W 005°20'4 8.6
2018-Jul-10 07:00N 36°02' W 005°14'9 7.9
2018-Jul-10 05:51N 36°03' W 005°03'3 7.5
2018-Jul-10 05:28N 36°03' W 004°60'176 9.5
2018-Jul-09 10:54N 36°34' W 001°24'713.7
2018-Jul-09 10:23N 36°36' W 001°16'1413.9
2018-Jul-09 09:22N 36°42' W 000°60'513.8
2018-Jul-09 09:00N 36°44' W 000°54'713.8
2018-Jul-09 08:30N 36°47' W 000°46'713.5
2018-Jul-09 07:59N 36°50' W 000°38'713.5
2018-Jul-09 07:29N 36°53' W 000°31'1113.7
2018-Jul-09 06:41N 36°57' W 000°18'314.5
2018-Jul-09 06:30N 36°58' W 000°15'713.8
2018-Jul-09 06:00N 37°01' W 000°07'713.5
2018-Jul-09 05:30N 37°04' E 000°00'713.4
2018-Jul-09 04:59N 37°07' E 000°08'713.3
2018-Jul-09 04:28N 37°10' E 000°16'613.3
2018-Jul-09 03:59N 37°13' E 000°23'613.3
2018-Jul-09 03:30N 37°15' E 000°30'713.4
2018-Jul-09 03:00N 37°18' E 000°38'713.4
2018-Jul-09 02:30N 37°21' E 000°46'713.4
2018-Jul-09 02:00N 37°24' E 000°53'713.4
2018-Jul-09 01:30N 37°26' E 001°01'713.7
2018-Jul-09 01:00N 37°28' E 001°10'713.9
2018-Jul-09 00:29N 37°29' E 001°19'713.8
2018-Jul-09 00:00N 37°31' E 001°27'713.9
2018-Jul-08 23:30N 37°32' E 001°36'713.9
2018-Jul-08 23:00N 37°33' E 001°44'713.7
2018-Jul-08 22:30N 37°35' E 001°53'713.7
2018-Jul-08 22:01N 37°36' E 002°01'713.6
2018-Jul-08 21:30N 37°38' E 002°09'713.3
2018-Jul-08 20:59N 37°39' E 002°18'713.6
2018-Jul-08 20:30N 37°40' E 002°26'713.7
2018-Jul-08 20:00N 37°42' E 002°35'713.5
2018-Jul-08 19:28N 37°43' E 002°43'613.3
2018-Jul-08 19:00N 37°44' E 002°51'3513.2
2018-Jul-08 16:24N 37°51' E 003°34'513.2
2018-Jul-08 16:00N 37°52' E 003°40'713.1
2018-Jul-08 15:31N 37°54' E 003°48'812.8
2018-Jul-08 14:55N 37°55' E 003°58'4212.9
2018-Jul-08 11:41N 38°04' E 004°50'213.1
2018-Jul-08 11:30N 38°04' E 004°53'713.0
2018-Jul-08 10:57N 38°06' E 005°02'612.9
2018-Jul-08 10:30N 38°07' E 005°09'8413.0
2018-Jul-08 04:01N 38°24' E 006°54'012.5
2018-Jul-08 04:00N 38°24' E 006°54'40811.3
2018-Jul-06 15:49N 36°01' E 014°54'0 0.0
2018-Jul-06 15:29N 36°01' E 014°54'0 0.0
2018-Jul-06 15:00N 36°01' E 014°54'0 0.0
2018-Jul-06 14:30N 36°01' E 014°54'0 0.0
2018-Jul-06 14:00N 36°01' E 014°54'0 0.0
2018-Jul-06 13:30N 36°01' E 014°54'0 0.0
2018-Jul-06 13:00N 36°01' E 014°54'0 0.0
2018-Jul-06 12:30N 36°01' E 014°54'0 0.0
2018-Jul-06 12:00N 36°01' E 014°54'0 0.0
2018-Jul-06 11:30N 36°01' E 014°54'0 0.0
2018-Jul-06 11:00N 36°01' E 014°54'0 0.0
2018-Jul-06 10:29N 36°01' E 014°54'0 0.0
2018-Jul-06 10:00N 36°01' E 014°54'0 0.0
2018-Jul-06 09:30N 36°01' E 014°54'0 0.0
2018-Jul-06 09:00N 36°01' E 014°54'0 0.0
2018-Jul-06 08:30N 36°01' E 014°54'0 0.0
2018-Jul-06 08:00N 36°01' E 014°54'0 0.0
2018-Jul-06 07:30N 36°01' E 014°54'0 0.0
2018-Jul-06 07:00N 36°01' E 014°54'0 0.0
2018-Jul-06 06:30N 36°01' E 014°54'0 0.0
2018-Jul-06 05:58N 36°01' E 014°54'  
Track history (hours):
 
Tides and Currents Weather Stations Pressure Air Temp Water Temp Dewpoint Dewpoint Depression Visibility Wind Speed Wind Dir Waves Ship Positions

Montego

Last reported at 2018-Jul-16 05:56 UTC. Time now 2018-Jul-17 05:38 UTC.
Position N 53°54' E 004°34'.

Length 246 m; draft 8.6 m.

Type: Ship (hazmat cat A). MMSI: 249549000.

Date/timePositionNaut miles runAvg speedWind from/ knotsBaromVisibWave heightAir tempDewpointWater temp
2018-Jul-16 05:56N 53°54' E 004°34'6 8.7
2018-Jul-16 05:15N 53°50' E 004°27'3 8.5
2018-Jul-16 04:53N 53°48' E 004°23'5 8.0
2018-Jul-16 04:17N 53°45' E 004°17'3 8.2
2018-Jul-16 03:55N 53°43' E 004°13'6 8.2
2018-Jul-16 03:12N 53°39' E 004°05'2 8.2
2018-Jul-16 02:56N 53°38' E 004°02'5 8.1
2018-Jul-16 02:23N 53°35' E 003°56'3 8.2
2018-Jul-16 02:00N 53°33' E 003°52'4 8.2
2018-Jul-16 01:30N 53°31' E 003°47'4 8.4
2018-Jul-16 01:00N 53°27' E 003°44'4 8.2
2018-Jul-16 00:29N 53°23' E 003°41'12 7.9
2018-Jul-15 22:59N 53°12' E 003°33'4 7.7
2018-Jul-15 22:30N 53°09' E 003°30'4 7.6
2018-Jul-15 21:59N 53°05' E 003°27'11 8.0
2018-Jul-15 20:35N 52°55' E 003°21'2 8.6
2018-Jul-15 20:22N 52°53' E 003°20'3 8.9
2018-Jul-15 19:58N 52°50' E 003°17'4 9.1
2018-Jul-15 19:30N 52°46' E 003°14'5 9.5
2018-Jul-15 18:59N 52°42' E 003°10'5 9.8
2018-Jul-15 18:26N 52°37' E 003°05'510.2
2018-Jul-15 17:56N 52°33' E 003°01'510.4
2018-Jul-15 17:27N 52°28' E 002°57'510.7
2018-Jul-15 16:58N 52°24' E 002°54'510.9
2018-Jul-15 16:30N 52°19' E 002°50'611.1
2018-Jul-15 16:00N 52°14' E 002°45'510.9
2018-Jul-15 15:30N 52°09' E 002°42'610.9
2018-Jul-15 14:58N 52°03' E 002°41'510.5
2018-Jul-15 14:30N 51°59' E 002°40'510.2
2018-Jul-15 14:00N 51°54' E 002°38'5 9.7
2018-Jul-15 13:30N 51°49' E 002°37'5 9.1
2018-Jul-15 13:00N 51°44' E 002°35'4 8.8
2018-Jul-15 12:30N 51°41' E 002°31'4 8.2
2018-Jul-15 12:00N 51°38' E 002°27'4 7.7
2018-Jul-15 11:30N 51°35' E 002°23'4 7.2
2018-Jul-15 11:00N 51°32' E 002°19'3 6.8
2018-Jul-15 10:30N 51°30' E 002°15'3 6.3
2018-Jul-15 10:00N 51°27' E 002°12'3 6.0
2018-Jul-15 09:30N 51°25' E 002°09'3 6.3
2018-Jul-15 09:00N 51°22' E 002°08'3 6.8
2018-Jul-15 08:30N 51°18' E 002°07'3 6.6
2018-Jul-15 08:00N 51°15' E 002°05'3 6.4
2018-Jul-15 07:30N 51°13' E 002°01'4 7.1
2018-Jul-15 07:00N 51°12' E 001°56'4 7.3
2018-Jul-15 06:30N 51°10' E 001°51'4 7.6
2018-Jul-15 06:00N 51°08' E 001°46'4 8.2
2018-Jul-15 05:30N 51°05' E 001°42'4 8.5
2018-Jul-15 05:00N 51°01' E 001°38'5 9.0
2018-Jul-15 04:30N 50°58' E 001°33'5 9.6
2018-Jul-15 04:01N 50°54' E 001°29'5 9.9
2018-Jul-15 03:30N 50°50' E 001°26'510.0
2018-Jul-15 03:00N 50°45' E 001°23'5 9.6
2018-Jul-15 02:30N 50°40' E 001°20'5 9.8
2018-Jul-15 02:00N 50°37' E 001°14'510.1
2018-Jul-15 01:30N 50°34' E 001°08'510.0
2018-Jul-15 01:00N 50°31' E 001°02'5 9.7
2018-Jul-15 00:30N 50°29' E 000°55'5 9.9
2018-Jul-15 00:00N 50°28' E 000°47'510.2
2018-Jul-14 23:30N 50°27' E 000°39'510.6
2018-Jul-14 23:00N 50°25' E 000°31'611.1
2018-Jul-14 22:30N 50°24' E 000°23'611.5
2018-Jul-14 22:00N 50°22' E 000°14'611.8
2018-Jul-14 21:30N 50°21' E 000°05'611.5
2018-Jul-14 21:00N 50°19' W 000°03'611.2
2018-Jul-14 20:30N 50°17' W 000°12'611.1
2018-Jul-14 20:00N 50°16' W 000°20'510.8
2018-Jul-14 19:30N 50°14' W 000°28'510.2
2018-Jul-14 19:00N 50°13' W 000°36'5 9.5
2018-Jul-14 18:30N 50°12' W 000°43'4 8.7
2018-Jul-14 18:00N 50°11' W 000°50'4 8.0
2018-Jul-14 17:30N 50°10' W 000°56'4 7.1
2018-Jul-14 17:00N 50°09' W 001°01'3 6.4
2018-Jul-14 16:30N 50°08' W 001°06'3 5.7
2018-Jul-14 16:00N 50°07' W 001°10'3 5.5
2018-Jul-14 15:30N 50°07' W 001°14'3 5.0
2018-Jul-14 15:00N 50°06' W 001°18'2 4.6
2018-Jul-14 14:31N 50°05' W 001°22'5 5.2
2018-Jul-14 13:31N 50°04' W 001°29'3 6.2
2018-Jul-14 13:00N 50°03' W 001°34'3 7.0
2018-Jul-14 12:30N 50°02' W 001°39'5 8.0
2018-Jul-14 11:56N 50°01' W 001°46'4 9.0
2018-Jul-14 11:30N 49°60' W 001°52'510.0
2018-Jul-14 11:00N 49°58' W 001°59'510.7
2018-Jul-14 10:30N 49°57' W 002°07'611.3
2018-Jul-14 10:00N 49°56' W 002°16'611.5
2018-Jul-14 09:30N 49°54' W 002°25'611.5
2018-Jul-14 09:00N 49°53' W 002°33'611.3
2018-Jul-14 08:30N 49°52' W 002°42'611.2
2018-Jul-14 08:00N 49°50' W 002°50'510.8
2018-Jul-14 07:30N 49°48' W 002°58'510.4
2018-Jul-14 07:00N 49°45' W 003°05'510.6
2018-Jul-14 06:30N 49°42' W 003°12'510.0
2018-Jul-14 06:00N 49°40' W 003°18'910.1
2018-Jul-14 05:06N 49°35' W 003°30'110.0
2018-Jul-14 04:59N 49°35' W 003°32'7 9.7
2018-Jul-14 04:19N 49°31' W 003°41'3 9.6
2018-Jul-14 04:00N 49°30' W 003°45'5 9.1
2018-Jul-14 03:30N 49°28' W 003°51'38 7.3
2018-Jul-13 22:21N 49°09' W 004°41'2 6.7
2018-Jul-13 22:00N 49°08' W 004°44'4 6.7
2018-Jul-13 21:26N 49°06' W 004°49'3 6.9
2018-Jul-13 21:00N 49°05' W 004°53'4 7.7
2018-Jul-13 20:30N 49°03' W 004°58'4 7.9
2018-Jul-13 20:00N 49°01' W 005°03'5 8.4
2018-Jul-13 19:26N 48°59' W 005°10'4 8.7
2018-Jul-13 19:00N 48°57' W 005°15'4 8.8
2018-Jul-13 18:30N 48°54' W 005°20'4 8.8
2018-Jul-13 18:00N 48°52' W 005°26'5 9.2
2018-Jul-13 17:30N 48°50' W 005°32'5 9.7
2018-Jul-13 17:00N 48°47' W 005°38'510.6
2018-Jul-13 16:30N 48°43' W 005°42'913.6
2018-Jul-13 15:49N 48°34' W 005°49'714.4
2018-Jul-13 15:19N 48°28' W 005°54'3914.3
2018-Jul-13 12:33N 47°53' W 006°20'5112.9
2018-Jul-13 08:34N 47°07' W 006°54'212.5
2018-Jul-13 08:24N 47°05' W 006°55'47811.7
2018-Jul-11 15:40N 39°25' W 009°51'211.7
2018-Jul-11 15:30N 39°23' W 009°51'711.8
2018-Jul-11 14:54N 39°16' W 009°51'512.2
2018-Jul-11 14:30N 39°11' W 009°51'612.4
2018-Jul-11 14:01N 39°05' W 009°51'612.2
2018-Jul-11 13:31N 38°59' W 009°51'612.0
2018-Jul-11 13:00N 38°52' W 009°51'612.2
2018-Jul-11 12:31N 38°46' W 009°52'612.2
2018-Jul-11 12:00N 38°40' W 009°51'612.8
2018-Jul-11 11:31N 38°34' W 009°49'612.9
2018-Jul-11 11:00N 38°28' W 009°47'612.9
2018-Jul-11 10:30N 38°22' W 009°45'613.0
2018-Jul-11 10:01N 38°15' W 009°43'713.1
2018-Jul-11 09:30N 38°09' W 009°41'612.9
2018-Jul-11 09:00N 38°03' W 009°39'713.0
2018-Jul-11 08:30N 37°56' W 009°37'713.1
2018-Jul-11 08:00N 37°50' W 009°36'713.1
2018-Jul-11 07:30N 37°43' W 009°34'713.0
2018-Jul-11 06:59N 37°37' W 009°32'612.7
2018-Jul-11 06:29N 37°31' W 009°30'1612.8
2018-Jul-11 05:15N 37°15' W 009°26'512.8
2018-Jul-11 04:50N 37°10' W 009°24'412.7
2018-Jul-11 04:30N 37°06' W 009°23'612.3
2018-Jul-11 04:01N 37°00' W 009°21'1612.4
2018-Jul-11 02:42N 36°46' W 009°11'312.5
2018-Jul-11 02:29N 36°45' W 009°08'613.2
2018-Jul-11 02:00N 36°43' W 009°01'712.9
2018-Jul-11 01:29N 36°41' W 008°53'612.8
2018-Jul-11 01:00N 36°40' W 008°45'2012.5
2018-Jul-10 23:25N 36°34' W 008°21'612.2
2018-Jul-10 22:54N 36°32' W 008°14'511.9
2018-Jul-10 22:30N 36°31' W 008°08'611.7
2018-Jul-10 22:00N 36°29' W 008°01'711.6
2018-Jul-10 21:25N 36°27' W 007°53'611.8
2018-Jul-10 20:53N 36°25' W 007°46'511.7
2018-Jul-10 20:25N 36°24' W 007°39'511.9
2018-Jul-10 19:59N 36°22' W 007°33'1912.3
2018-Jul-10 18:27N 36°15' W 007°11'78 8.4
2018-Jul-10 09:12N 35°58' W 005°37'210.4
2018-Jul-10 09:00N 35°58' W 005°35'5 9.7
2018-Jul-10 08:30N 35°59' W 005°29'4 8.3
2018-Jul-10 08:00N 36°00' W 005°24'4 7.1
2018-Jul-10 07:30N 36°01' W 005°20'4 8.6
2018-Jul-10 07:00N 36°02' W 005°14'9 7.9
2018-Jul-10 05:51N 36°03' W 005°03'3 7.5
2018-Jul-10 05:28N 36°03' W 004°60'176 9.5
2018-Jul-09 10:54N 36°34' W 001°24'713.7
2018-Jul-09 10:23N 36°36' W 001°16'1413.9
2018-Jul-09 09:22N 36°42' W 000°60'513.8
2018-Jul-09 09:00N 36°44' W 000°54'713.8
2018-Jul-09 08:30N 36°47' W 000°46'713.5
2018-Jul-09 07:59N 36°50' W 000°38'713.5
2018-Jul-09 07:29N 36°53' W 000°31'1113.7
2018-Jul-09 06:41N 36°57' W 000°18'314.5
2018-Jul-09 06:30N 36°58' W 000°15'713.8
2018-Jul-09 06:00N 37°01' W 000°07'713.5
2018-Jul-09 05:30N 37°04' E 000°00'713.4
2018-Jul-09 04:59N 37°07' E 000°08'713.3
2018-Jul-09 04:28N 37°10' E 000°16'613.3
2018-Jul-09 03:59N 37°13' E 000°23'613.3
2018-Jul-09 03:30N 37°15' E 000°30'713.4
2018-Jul-09 03:00N 37°18' E 000°38'713.4
2018-Jul-09 02:30N 37°21' E 000°46'713.4
2018-Jul-09 02:00N 37°24' E 000°53'713.4
2018-Jul-09 01:30N 37°26' E 001°01'713.7
2018-Jul-09 01:00N 37°28' E 001°10'713.9
2018-Jul-09 00:29N 37°29' E 001°19'713.8
2018-Jul-09 00:00N 37°31' E 001°27'713.9
2018-Jul-08 23:30N 37°32' E 001°36'713.9
2018-Jul-08 23:00N 37°33' E 001°44'713.7
2018-Jul-08 22:30N 37°35' E 001°53'713.7
2018-Jul-08 22:01N 37°36' E 002°01'713.6
2018-Jul-08 21:30N 37°38' E 002°09'713.3
2018-Jul-08 20:59N 37°39' E 002°18'713.6
2018-Jul-08 20:30N 37°40' E 002°26'713.7
2018-Jul-08 20:00N 37°42' E 002°35'713.5
2018-Jul-08 19:28N 37°43' E 002°43'613.3
2018-Jul-08 19:00N 37°44' E 002°51'3513.2
2018-Jul-08 16:24N 37°51' E 003°34'513.2
2018-Jul-08 16:00N 37°52' E 003°40'713.1
2018-Jul-08 15:31N 37°54' E 003°48'812.8
2018-Jul-08 14:55N 37°55' E 003°58'4212.9
2018-Jul-08 11:41N 38°04' E 004°50'213.1
2018-Jul-08 11:30N 38°04' E 004°53'713.0
2018-Jul-08 10:57N 38°06' E 005°02'612.9
2018-Jul-08 10:30N 38°07' E 005°09'8413.0
2018-Jul-08 04:01N 38°24' E 006°54'012.5
2018-Jul-08 04:00N 38°24' E 006°54'40811.3
2018-Jul-06 15:49N 36°01' E 014°54'0 0.0
2018-Jul-06 15:29N 36°01' E 014°54'0 0.0
2018-Jul-06 15:00N 36°01' E 014°54'0 0.0
2018-Jul-06 14:30N 36°01' E 014°54'0 0.0
2018-Jul-06 14:00N 36°01' E 014°54'0 0.0
2018-Jul-06 13:30N 36°01' E 014°54'0 0.0
2018-Jul-06 13:00N 36°01' E 014°54'0 0.0
2018-Jul-06 12:30N 36°01' E 014°54'0 0.0
2018-Jul-06 12:00N 36°01' E 014°54'0 0.0
2018-Jul-06 11:30N 36°01' E 014°54'0 0.0
2018-Jul-06 11:00N 36°01' E 014°54'0 0.0
2018-Jul-06 10:29N 36°01' E 014°54'0 0.0
2018-Jul-06 10:00N 36°01' E 014°54'0 0.0
2018-Jul-06 09:30N 36°01' E 014°54'0 0.0
2018-Jul-06 09:00N 36°01' E 014°54'0 0.0
2018-Jul-06 08:30N 36°01' E 014°54'0 0.0
2018-Jul-06 08:00N 36°01' E 014°54'0 0.0
2018-Jul-06 07:30N 36°01' E 014°54'0 0.0
2018-Jul-06 07:00N 36°01' E 014°54'0 0.0
2018-Jul-06 06:30N 36°01' E 014°54'0 0.0
2018-Jul-06 05:58N 36°01' E 014°54'  

Dump ship's entire track history